sensor_id;sensor_type;location;lat;lon;timestamp;temperature;humidity
10247;DHT22;5168;47.854;7.944;2023-03-31T00:01:32;9.10;99.90
10247;DHT22;5168;47.854;7.944;2023-03-31T00:03:59;9.00;99.90
10247;DHT22;5168;47.854;7.944;2023-03-31T00:06:32;9.10;99.90
10247;DHT22;5168;47.854;7.944;2023-03-31T00:09:03;8.70;99.90
10247;DHT22;5168;47.854;7.944;2023-03-31T00:16:20;8.30;99.90
10247;DHT22;5168;47.854;7.944;2023-03-31T00:18:46;8.40;99.90
10247;DHT22;5168;47.854;7.944;2023-03-31T00:21:17;8.40;99.90
10247;DHT22;5168;47.854;7.944;2023-03-31T00:23:52;8.30;99.90
10247;DHT22;5168;47.854;7.944;2023-03-31T00:28:43;8.60;99.90
10247;DHT22;5168;47.854;7.944;2023-03-31T00:33:35;8.60;99.90
10247;DHT22;5168;47.854;7.944;2023-03-31T00:36:01;8.10;99.90
10247;DHT22;5168;47.854;7.944;2023-03-31T00:38:30;8.40;99.90
10247;DHT22;5168;47.854;7.944;2023-03-31T00:40:57;7.70;99.90
10247;DHT22;5168;47.854;7.944;2023-03-31T00:43:35;7.90;99.90
10247;DHT22;5168;47.854;7.944;2023-03-31T00:46:23;7.80;99.90
10247;DHT22;5168;47.854;7.944;2023-03-31T00:48:54;7.70;99.90
10247;DHT22;5168;47.854;7.944;2023-03-31T00:51:28;7.80;99.90
10247;DHT22;5168;47.854;7.944;2023-03-31T00:53:57;7.50;99.90
10247;DHT22;5168;47.854;7.944;2023-03-31T00:56:32;7.10;99.90
10247;DHT22;5168;47.854;7.944;2023-03-31T00:59:02;7.30;99.90
10247;DHT22;5168;47.854;7.944;2023-03-31T01:01:29;7.00;99.90
10247;DHT22;5168;47.854;7.944;2023-03-31T01:03:56;7.20;99.90
10247;DHT22;5168;47.854;7.944;2023-03-31T01:06:23;7.00;99.90
10247;DHT22;5168;47.854;7.944;2023-03-31T01:08:50;6.90;99.90
10247;DHT22;5168;47.854;7.944;2023-03-31T01:11:19;6.80;99.90
10247;DHT22;5168;47.854;7.944;2023-03-31T01:13:45;6.70;99.90
10247;DHT22;5168;47.854;7.944;2023-03-31T01:16:16;6.70;99.90
10247;DHT22;5168;47.854;7.944;2023-03-31T01:18:42;6.50;99.90
10247;DHT22;5168;47.854;7.944;2023-03-31T01:32:00;6.60;99.90
10247;DHT22;5168;47.854;7.944;2023-03-31T01:40:53;6.60;99.90
10247;DHT22;5168;47.854;7.944;2023-03-31T01:43:32;6.90;99.90
10247;DHT22;5168;47.854;7.944;2023-03-31T01:49:10;6.60;99.90
10247;DHT22;5168;47.854;7.944;2023-03-31T01:52:03;6.80;99.90
10247;DHT22;5168;47.854;7.944;2023-03-31T01:57:37;7.00;99.90
10247;DHT22;5168;47.854;7.944;2023-03-31T02:00:04;6.80;99.90
10247;DHT22;5168;47.854;7.944;2023-03-31T02:02:48;6.90;99.90
10247;DHT22;5168;47.854;7.944;2023-03-31T02:05:24;7.30;99.90
10247;DHT22;5168;47.854;7.944;2023-03-31T02:07:56;7.20;99.90
10247;DHT22;5168;47.854;7.944;2023-03-31T02:10:24;6.90;99.90
10247;DHT22;5168;47.854;7.944;2023-03-31T02:12:51;6.90;99.90
10247;DHT22;5168;47.854;7.944;2023-03-31T02:15:25;7.50;99.90
10247;DHT22;5168;47.854;7.944;2023-03-31T02:17:55;6.80;99.90
10247;DHT22;5168;47.854;7.944;2023-03-31T02:20:22;6.90;99.90
10247;DHT22;5168;47.854;7.944;2023-03-31T02:22:51;7.10;99.90
10247;DHT22;5168;47.854;7.944;2023-03-31T02:25:22;6.30;99.90
10247;DHT22;5168;47.854;7.944;2023-03-31T02:27:58;7.20;99.90
10247;DHT22;5168;47.854;7.944;2023-03-31T02:30:28;7.10;99.90
10247;DHT22;5168;47.854;7.944;2023-03-31T02:32:56;7.10;99.90
10247;DHT22;5168;47.854;7.944;2023-03-31T02:37:49;6.90;99.90
10247;DHT22;5168;47.854;7.944;2023-03-31T02:40:21;7.40;99.90
10247;DHT22;5168;47.854;7.944;2023-03-31T02:42:48;7.20;99.90
10247;DHT22;5168;47.854;7.944;2023-03-31T02:45:45;7.20;99.90
10247;DHT22;5168;47.854;7.944;2023-03-31T02:51:08;7.00;99.90
10247;DHT22;5168;47.854;7.944;2023-03-31T03:02:35;7.10;99.90
10247;DHT22;5168;47.854;7.944;2023-03-31T03:13:33;7.00;99.90
10247;DHT22;5168;47.854;7.944;2023-03-31T03:16:16;7.10;99.90
10247;DHT22;5168;47.854;7.944;2023-03-31T03:21:21;7.40;99.90
10247;DHT22;5168;47.854;7.944;2023-03-31T03:23:47;7.50;99.90
10247;DHT22;5168;47.854;7.944;2023-03-31T03:28:39;7.10;99.90
10247;DHT22;5168;47.854;7.944;2023-03-31T03:33:30;6.70;99.90
10247;DHT22;5168;47.854;7.944;2023-03-31T03:35:56;7.10;99.90
10247;DHT22;5168;47.854;7.944;2023-03-31T03:38:21;7.10;99.90
10247;DHT22;5168;47.854;7.944;2023-03-31T03:40:52;7.00;99.90
10247;DHT22;5168;47.854;7.944;2023-03-31T03:43:17;7.20;99.90
10247;DHT22;5168;47.854;7.944;2023-03-31T03:45:47;6.90;99.90
10247;DHT22;5168;47.854;7.944;2023-03-31T03:48:13;7.10;99.90
10247;DHT22;5168;47.854;7.944;2023-03-31T03:50:38;7.00;99.90
10247;DHT22;5168;47.854;7.944;2023-03-31T04:02:48;7.10;99.90
10247;DHT22;5168;47.854;7.944;2023-03-31T04:10:07;7.30;99.90
10247;DHT22;5168;47.854;7.944;2023-03-31T04:12:35;7.00;99.90
10247;DHT22;5168;47.854;7.944;2023-03-31T04:15:01;6.90;99.90
10247;DHT22;5168;47.854;7.944;2023-03-31T04:20:17;7.20;99.90
10247;DHT22;5168;47.854;7.944;2023-03-31T04:22:43;7.20;99.90
10247;DHT22;5168;47.854;7.944;2023-03-31T04:25:12;7.50;99.90
10247;DHT22;5168;47.854;7.944;2023-03-31T04:30:12;7.70;99.90
10247;DHT22;5168;47.854;7.944;2023-03-31T04:32:38;7.50;99.90
10247;DHT22;5168;47.854;7.944;2023-03-31T04:35:04;7.00;99.90
10247;DHT22;5168;47.854;7.944;2023-03-31T04:37:30;7.40;99.90
10247;DHT22;5168;47.854;7.944;2023-03-31T04:40:00;7.20;99.90
10247;DHT22;5168;47.854;7.944;2023-03-31T04:49:50;7.70;99.90
10247;DHT22;5168;47.854;7.944;2023-03-31T04:52:15;7.30;99.90
10247;DHT22;5168;47.854;7.944;2023-03-31T04:54:41;7.40;99.90
10247;DHT22;5168;47.854;7.944;2023-03-31T04:59:32;7.10;99.90
10247;DHT22;5168;47.854;7.944;2023-03-31T05:04:24;7.20;99.90
10247;DHT22;5168;47.854;7.944;2023-03-31T05:06:49;7.10;99.90
10247;DHT22;5168;47.854;7.944;2023-03-31T05:14:07;7.20;99.90
10247;DHT22;5168;47.854;7.944;2023-03-31T05:16:33;7.30;99.90
10247;DHT22;5168;47.854;7.944;2023-03-31T05:18:58;7.80;99.90
10247;DHT22;5168;47.854;7.944;2023-03-31T05:21:24;7.30;99.90
10247;DHT22;5168;47.854;7.944;2023-03-31T05:23:51;7.10;99.90
10247;DHT22;5168;47.854;7.944;2023-03-31T05:28:43;7.60;99.90
10247;DHT22;5168;47.854;7.944;2023-03-31T05:31:10;7.10;99.90
10247;DHT22;5168;47.854;7.944;2023-03-31T05:33:37;7.30;99.90
10247;DHT22;5168;47.854;7.944;2023-03-31T05:36:16;7.20;99.90
10247;DHT22;5168;47.854;7.944;2023-03-31T05:38:42;7.30;99.90
10247;DHT22;5168;47.854;7.944;2023-03-31T05:41:09;7.10;99.90
10247;DHT22;5168;47.854;7.944;2023-03-31T05:43:36;6.80;99.90
10247;DHT22;5168;47.854;7.944;2023-03-31T05:46:02;7.20;99.90
10247;DHT22;5168;47.854;7.944;2023-03-31T05:48:27;7.10;99.90
10247;DHT22;5168;47.854;7.944;2023-03-31T05:50:57;7.30;99.90
10247;DHT22;5168;47.854;7.944;2023-03-31T05:58:15;7.00;99.90
10247;DHT22;5168;47.854;7.944;2023-03-31T06:00:40;7.60;99.90
10247;DHT22;5168;47.854;7.944;2023-03-31T06:03:08;7.10;99.90
10247;DHT22;5168;47.854;7.944;2023-03-31T06:05:34;7.20;99.90
10247;DHT22;5168;47.854;7.944;2023-03-31T06:10:25;7.40;99.90
10247;DHT22;5168;47.854;7.944;2023-03-31T06:12:51;8.00;99.90
10247;DHT22;5168;47.854;7.944;2023-03-31T06:17:42;8.10;99.90
10247;DHT22;5168;47.854;7.944;2023-03-31T06:32:18;6.60;99.90
10247;DHT22;5168;47.854;7.944;2023-03-31T06:34:44;6.10;99.90
10247;DHT22;5168;47.854;7.944;2023-03-31T06:46:53;6.20;99.90
10247;DHT22;5168;47.854;7.944;2023-03-31T06:49:19;6.20;99.90
10247;DHT22;5168;47.854;7.944;2023-03-31T06:51:44;5.60;99.90
10247;DHT22;5168;47.854;7.944;2023-03-31T06:59:02;6.30;99.90
10247;DHT22;5168;47.854;7.944;2023-03-31T07:01:27;6.30;99.90
10247;DHT22;5168;47.854;7.944;2023-03-31T07:03:53;6.20;99.90
10247;DHT22;5168;47.854;7.944;2023-03-31T07:11:10;6.80;99.90
10247;DHT22;5168;47.854;7.944;2023-03-31T07:13:36;6.80;99.90
10247;DHT22;5168;47.854;7.944;2023-03-31T07:16:02;6.90;99.90
10247;DHT22;5168;47.854;7.944;2023-03-31T07:20:59;6.60;99.90
10247;DHT22;5168;47.854;7.944;2023-03-31T07:23:25;7.10;99.90
10247;DHT22;5168;47.854;7.944;2023-03-31T07:25:50;6.60;99.90
10247;DHT22;5168;47.854;7.944;2023-03-31T07:28:16;6.80;99.90
10247;DHT22;5168;47.854;7.944;2023-03-31T07:30:42;7.00;99.90
10247;DHT22;5168;47.854;7.944;2023-03-31T07:35:37;7.30;99.90
10247;DHT22;5168;47.854;7.944;2023-03-31T07:40:29;6.70;99.90
10247;DHT22;5168;47.854;7.944;2023-03-31T07:42:55;6.80;99.90
10247;DHT22;5168;47.854;7.944;2023-03-31T07:45:22;6.80;99.90
10247;DHT22;5168;47.854;7.944;2023-03-31T07:47:48;6.50;99.90
10247;DHT22;5168;47.854;7.944;2023-03-31T07:50:14;6.80;99.90
10247;DHT22;5168;47.854;7.944;2023-03-31T07:52:40;6.80;99.90
10247;DHT22;5168;47.854;7.944;2023-03-31T07:55:07;6.60;99.90
10247;DHT22;5168;47.854;7.944;2023-03-31T07:57:33;7.20;99.90
10247;DHT22;5168;47.854;7.944;2023-03-31T07:59:59;6.70;99.90
10247;DHT22;5168;47.854;7.944;2023-03-31T08:02:24;6.60;99.90
10247;DHT22;5168;47.854;7.944;2023-03-31T08:04:50;7.10;99.90
10247;DHT22;5168;47.854;7.944;2023-03-31T08:07:16;6.50;99.90
10247;DHT22;5168;47.854;7.944;2023-03-31T08:09:45;6.70;99.90
10247;DHT22;5168;47.854;7.944;2023-03-31T08:12:11;7.00;99.90
10247;DHT22;5168;47.854;7.944;2023-03-31T08:17:04;7.10;99.90
10247;DHT22;5168;47.854;7.944;2023-03-31T08:21:56;7.10;99.90
10247;DHT22;5168;47.854;7.944;2023-03-31T08:24:21;7.70;99.90
10247;DHT22;5168;47.854;7.944;2023-03-31T08:26:47;7.70;99.90
10247;DHT22;5168;47.854;7.944;2023-03-31T08:29:12;7.80;99.90
10247;DHT22;5168;47.854;7.944;2023-03-31T08:31:38;7.70;99.90
10247;DHT22;5168;47.854;7.944;2023-03-31T08:34:04;7.10;99.90
10247;DHT22;5168;47.854;7.944;2023-03-31T08:36:30;7.70;99.90
10247;DHT22;5168;47.854;7.944;2023-03-31T08:38:56;7.60;99.90
10247;DHT22;5168;47.854;7.944;2023-03-31T08:41:43;7.30;99.90
10247;DHT22;5168;47.854;7.944;2023-03-31T08:47:00;7.20;99.90
10247;DHT22;5168;47.854;7.944;2023-03-31T08:49:29;6.80;99.90
10247;DHT22;5168;47.854;7.944;2023-03-31T08:52:01;7.00;99.90
10247;DHT22;5168;47.854;7.944;2023-03-31T08:54:42;7.30;99.90
10247;DHT22;5168;47.854;7.944;2023-03-31T08:57:16;7.30;99.90
10247;DHT22;5168;47.854;7.944;2023-03-31T09:02:31;7.50;99.90
10247;DHT22;5168;47.854;7.944;2023-03-31T09:08:25;7.20;99.90
10247;DHT22;5168;47.854;7.944;2023-03-31T09:11:07;7.20;99.90
10247;DHT22;5168;47.854;7.944;2023-03-31T09:13:45;7.70;99.90
10247;DHT22;5168;47.854;7.944;2023-03-31T09:16:47;7.30;99.90
10247;DHT22;5168;47.854;7.944;2023-03-31T09:19:13;7.10;99.90
10247;DHT22;5168;47.854;7.944;2023-03-31T09:21:43;7.50;99.90
10247;DHT22;5168;47.854;7.944;2023-03-31T09:24:23;7.50;99.90
10247;DHT22;5168;47.854;7.944;2023-03-31T09:26:59;7.80;99.90
10247;DHT22;5168;47.854;7.944;2023-03-31T09:32:27;8.00;99.90
10247;DHT22;5168;47.854;7.944;2023-03-31T09:35:16;7.40;99.90
10247;DHT22;5168;47.854;7.944;2023-03-31T09:37:42;7.90;99.90
10247;DHT22;5168;47.854;7.944;2023-03-31T09:40:16;7.60;99.90
10247;DHT22;5168;47.854;7.944;2023-03-31T09:45:16;8.10;99.90
10247;DHT22;5168;47.854;7.944;2023-03-31T09:47:50;8.50;99.90
10247;DHT22;5168;47.854;7.944;2023-03-31T09:50:17;8.10;99.90
10247;DHT22;5168;47.854;7.944;2023-03-31T09:52:47;8.10;99.90
10247;DHT22;5168;47.854;7.944;2023-03-31T10:02:53;8.10;99.90
10247;DHT22;5168;47.854;7.944;2023-03-31T10:10:47;8.60;99.90
10247;DHT22;5168;47.854;7.944;2023-03-31T10:13:16;9.50;99.90
10247;DHT22;5168;47.854;7.944;2023-03-31T10:18:13;10.10;99.90
10247;DHT22;5168;47.854;7.944;2023-03-31T10:20:44;10.30;99.90
10247;DHT22;5168;47.854;7.944;2023-03-31T10:23:22;10.30;99.90
10247;DHT22;5168;47.854;7.944;2023-03-31T10:25:49;9.70;99.90
10247;DHT22;5168;47.854;7.944;2023-03-31T10:28:17;9.30;99.90
10247;DHT22;5168;47.854;7.944;2023-03-31T10:30:51;9.10;99.90
10247;DHT22;5168;47.854;7.944;2023-03-31T10:33:21;8.90;99.90
10247;DHT22;5168;47.854;7.944;2023-03-31T10:35:56;8.80;99.90
10247;DHT22;5168;47.854;7.944;2023-03-31T10:38:32;8.50;99.90
10247;DHT22;5168;47.854;7.944;2023-03-31T10:40:59;8.20;99.90
10247;DHT22;5168;47.854;7.944;2023-03-31T10:43:29;8.30;99.90
10247;DHT22;5168;47.854;7.944;2023-03-31T10:46:00;8.30;99.90
10247;DHT22;5168;47.854;7.944;2023-03-31T10:48:30;8.80;99.90
10247;DHT22;5168;47.854;7.944;2023-03-31T10:50:59;9.30;99.90
10247;DHT22;5168;47.854;7.944;2023-03-31T11:06:32;9.20;99.90
10247;DHT22;5168;47.854;7.944;2023-03-31T11:17:16;9.80;99.90
10247;DHT22;5168;47.854;7.944;2023-03-31T11:22:45;12.90;99.90
10247;DHT22;5168;47.854;7.944;2023-03-31T11:44:04;8.70;99.90
10247;DHT22;5168;47.854;7.944;2023-03-31T12:58:42;9.60;99.90
10247;DHT22;5168;47.854;7.944;2023-03-31T13:01:22;9.30;99.90
10247;DHT22;5168;47.854;7.944;2023-03-31T13:08:57;9.10;99.90
10247;DHT22;5168;47.854;7.944;2023-03-31T13:14:20;9.00;99.90
10247;DHT22;5168;47.854;7.944;2023-03-31T13:16:48;8.50;99.90
10247;DHT22;5168;47.854;7.944;2023-03-31T13:19:33;8.40;99.90
10247;DHT22;5168;47.854;7.944;2023-03-31T13:22:01;8.80;99.90
10247;DHT22;5168;47.854;7.944;2023-03-31T13:24:28;8.20;99.90
10247;DHT22;5168;47.854;7.944;2023-03-31T13:26:55;8.40;99.90
10247;DHT22;5168;47.854;7.944;2023-03-31T13:29:43;8.30;99.90
10247;DHT22;5168;47.854;7.944;2023-03-31T13:32:17;8.00;99.90
10247;DHT22;5168;47.854;7.944;2023-03-31T13:37:56;8.30;99.90
10247;DHT22;5168;47.854;7.944;2023-03-31T13:40:48;7.30;99.90
10247;DHT22;5168;47.854;7.944;2023-03-31T13:52:02;5.70;99.90
10247;DHT22;5168;47.854;7.944;2023-03-31T13:57:52;5.10;99.90
10247;DHT22;5168;47.854;7.944;2023-03-31T14:00:49;5.20;99.90
10247;DHT22;5168;47.854;7.944;2023-03-31T14:09:00;4.90;99.90
10247;DHT22;5168;47.854;7.944;2023-03-31T14:11:29;4.90;99.90
10247;DHT22;5168;47.854;7.944;2023-03-31T14:14:04;5.00;99.90
10247;DHT22;5168;47.854;7.944;2023-03-31T14:16:37;5.60;99.90
10247;DHT22;5168;47.854;7.944;2023-03-31T14:19:16;6.00;99.90
10247;DHT22;5168;47.854;7.944;2023-03-31T14:21:50;5.20;99.90
10247;DHT22;5168;47.854;7.944;2023-03-31T14:24:49;5.20;99.90
10247;DHT22;5168;47.854;7.944;2023-03-31T14:27:44;5.00;99.90
10247;DHT22;5168;47.854;7.944;2023-03-31T14:30:29;5.40;99.90
10247;DHT22;5168;47.854;7.944;2023-03-31T14:35:52;5.00;99.90
10247;DHT22;5168;47.854;7.944;2023-03-31T14:38:21;5.20;99.90
10247;DHT22;5168;47.854;7.944;2023-03-31T14:40:50;4.90;99.90
10247;DHT22;5168;47.854;7.944;2023-03-31T14:43:24;4.70;99.90
10247;DHT22;5168;47.854;7.944;2023-03-31T14:46:07;4.30;99.90
10247;DHT22;5168;47.854;7.944;2023-03-31T14:49:03;4.80;99.90
10247;DHT22;5168;47.854;7.944;2023-03-31T14:51:30;4.40;99.90
10247;DHT22;5168;47.854;7.944;2023-03-31T14:53:57;4.50;99.90
10247;DHT22;5168;47.854;7.944;2023-03-31T14:56:32;5.10;99.90
10247;DHT22;5168;47.854;7.944;2023-03-31T14:59:01;4.90;99.90
10247;DHT22;5168;47.854;7.944;2023-03-31T15:01:30;5.50;99.90
10247;DHT22;5168;47.854;7.944;2023-03-31T15:04:00;5.60;99.90
10247;DHT22;5168;47.854;7.944;2023-03-31T15:08:54;5.90;99.90
10247;DHT22;5168;47.854;7.944;2023-03-31T15:11:22;6.10;99.90
10247;DHT22;5168;47.854;7.944;2023-03-31T15:13:52;6.10;99.90
10247;DHT22;5168;47.854;7.944;2023-03-31T15:16:50;6.10;99.90
10247;DHT22;5168;47.854;7.944;2023-03-31T15:21:42;6.20;99.90
10247;DHT22;5168;47.854;7.944;2023-03-31T15:24:12;5.60;99.90
10247;DHT22;5168;47.854;7.944;2023-03-31T15:26:42;5.60;99.90
10247;DHT22;5168;47.854;7.944;2023-03-31T15:29:16;5.60;99.90
10247;DHT22;5168;47.854;7.944;2023-03-31T15:34:24;5.60;99.90
10247;DHT22;5168;47.854;7.944;2023-03-31T15:36:53;5.50;99.90
10247;DHT22;5168;47.854;7.944;2023-03-31T15:41:47;5.50;99.90
10247;DHT22;5168;47.854;7.944;2023-03-31T15:47:07;5.10;99.90
10247;DHT22;5168;47.854;7.944;2023-03-31T15:49:33;5.30;99.90
10247;DHT22;5168;47.854;7.944;2023-03-31T15:51:59;5.30;99.90
10247;DHT22;5168;47.854;7.944;2023-03-31T15:54:40;5.30;99.90
10247;DHT22;5168;47.854;7.944;2023-03-31T15:57:07;5.10;99.90
10247;DHT22;5168;47.854;7.944;2023-03-31T15:59:47;5.10;99.90
10247;DHT22;5168;47.854;7.944;2023-03-31T16:02:26;5.20;99.90
10247;DHT22;5168;47.854;7.944;2023-03-31T16:04:56;5.10;99.90
10247;DHT22;5168;47.854;7.944;2023-03-31T16:07:28;5.20;99.90
10247;DHT22;5168;47.854;7.944;2023-03-31T16:12:59;5.00;99.90
10247;DHT22;5168;47.854;7.944;2023-03-31T16:15:38;5.10;99.90
10247;DHT22;5168;47.854;7.944;2023-03-31T16:18:08;5.00;99.90
10247;DHT22;5168;47.854;7.944;2023-03-31T16:20:39;5.30;99.90
10247;DHT22;5168;47.854;7.944;2023-03-31T16:23:19;5.00;99.90
10247;DHT22;5168;47.854;7.944;2023-03-31T16:25:45;4.90;99.90
10247;DHT22;5168;47.854;7.944;2023-03-31T16:28:14;5.00;99.90
10247;DHT22;5168;47.854;7.944;2023-03-31T16:30:43;5.20;99.90
10247;DHT22;5168;47.854;7.944;2023-03-31T16:33:11;4.60;99.90
10247;DHT22;5168;47.854;7.944;2023-03-31T16:35:39;5.00;99.90
10247;DHT22;5168;47.854;7.944;2023-03-31T16:38:07;5.10;99.90
10247;DHT22;5168;47.854;7.944;2023-03-31T16:40:38;5.50;99.90
10247;DHT22;5168;47.854;7.944;2023-03-31T16:43:07;5.50;99.90
10247;DHT22;5168;47.854;7.944;2023-03-31T16:45:33;5.70;99.90
10247;DHT22;5168;47.854;7.944;2023-03-31T16:55:17;5.00;99.90
10247;DHT22;5168;47.854;7.944;2023-03-31T16:57:42;5.20;99.90
10247;DHT22;5168;47.854;7.944;2023-03-31T17:00:08;5.10;99.90
10247;DHT22;5168;47.854;7.944;2023-03-31T17:02:34;5.00;99.90
10247;DHT22;5168;47.854;7.944;2023-03-31T17:05:00;5.00;99.90
10247;DHT22;5168;47.854;7.944;2023-03-31T17:12:18;5.00;99.90
10247;DHT22;5168;47.854;7.944;2023-03-31T17:14:43;5.20;99.90
10247;DHT22;5168;47.854;7.944;2023-03-31T17:17:09;5.50;99.90
10247;DHT22;5168;47.854;7.944;2023-03-31T17:24:28;5.10;99.90
10247;DHT22;5168;47.854;7.944;2023-03-31T17:26:53;4.70;99.90
10247;DHT22;5168;47.854;7.944;2023-03-31T17:36:37;5.00;99.90
10247;DHT22;5168;47.854;7.944;2023-03-31T17:39:03;5.40;99.90
10247;DHT22;5168;47.854;7.944;2023-03-31T17:41:30;5.30;99.90
10247;DHT22;5168;47.854;7.944;2023-03-31T17:46:22;5.40;99.90
10247;DHT22;5168;47.854;7.944;2023-03-31T17:48:48;5.50;99.90
10247;DHT22;5168;47.854;7.944;2023-03-31T17:51:17;5.30;99.90
10247;DHT22;5168;47.854;7.944;2023-03-31T17:53:44;5.10;99.90
10247;DHT22;5168;47.854;7.944;2023-03-31T17:56:11;6.10;99.90
10247;DHT22;5168;47.854;7.944;2023-03-31T17:58:36;5.50;99.90
10247;DHT22;5168;47.854;7.944;2023-03-31T18:01:03;5.40;99.90
10247;DHT22;5168;47.854;7.944;2023-03-31T18:03:30;5.20;99.90
10247;DHT22;5168;47.854;7.944;2023-03-31T18:05:56;5.30;99.90
10247;DHT22;5168;47.854;7.944;2023-03-31T18:08:21;5.80;99.90
10247;DHT22;5168;47.854;7.944;2023-03-31T18:10:47;5.10;99.90
10247;DHT22;5168;47.854;7.944;2023-03-31T18:13:13;5.20;99.90
10247;DHT22;5168;47.854;7.944;2023-03-31T18:15:45;5.40;99.90
10247;DHT22;5168;47.854;7.944;2023-03-31T18:18:10;5.70;99.90
10247;DHT22;5168;47.854;7.944;2023-03-31T18:20:36;5.50;99.90
10247;DHT22;5168;47.854;7.944;2023-03-31T18:23:01;5.10;99.90
10247;DHT22;5168;47.854;7.944;2023-03-31T18:27:53;5.40;99.90
10247;DHT22;5168;47.854;7.944;2023-03-31T18:30:18;5.30;99.90
10247;DHT22;5168;47.854;7.944;2023-03-31T18:32:44;5.40;99.90
10247;DHT22;5168;47.854;7.944;2023-03-31T18:40:02;5.00;99.90
10247;DHT22;5168;47.854;7.944;2023-03-31T18:42:27;5.70;99.90
10247;DHT22;5168;47.854;7.944;2023-03-31T18:44:53;5.20;99.90
10247;DHT22;5168;47.854;7.944;2023-03-31T18:47:19;4.80;99.90
10247;DHT22;5168;47.854;7.944;2023-03-31T18:49:46;5.10;99.90
10247;DHT22;5168;47.854;7.944;2023-03-31T18:54:38;5.00;99.90
10247;DHT22;5168;47.854;7.944;2023-03-31T18:57:04;4.90;99.90
10247;DHT22;5168;47.854;7.944;2023-03-31T19:01:56;5.20;99.90
10247;DHT22;5168;47.854;7.944;2023-03-31T19:04:22;5.20;99.90
10247;DHT22;5168;47.854;7.944;2023-03-31T19:06:47;4.90;99.90
10247;DHT22;5168;47.854;7.944;2023-03-31T19:09:13;4.70;99.90
10247;DHT22;5168;47.854;7.944;2023-03-31T19:11:38;4.50;99.90
10247;DHT22;5168;47.854;7.944;2023-03-31T19:14:04;5.00;99.90
10247;DHT22;5168;47.854;7.944;2023-03-31T19:21:21;4.60;99.90
10247;DHT22;5168;47.854;7.944;2023-03-31T19:23:47;5.30;99.90
10247;DHT22;5168;47.854;7.944;2023-03-31T19:26:15;4.90;99.90
10247;DHT22;5168;47.854;7.944;2023-03-31T19:31:09;4.60;99.90
10247;DHT22;5168;47.854;7.944;2023-03-31T19:40:56;4.50;99.90
10247;DHT22;5168;47.854;7.944;2023-03-31T19:43:23;4.50;99.90
10247;DHT22;5168;47.854;7.944;2023-03-31T19:45:50;4.80;99.90
10247;DHT22;5168;47.854;7.944;2023-03-31T19:48:18;4.50;99.90
10247;DHT22;5168;47.854;7.944;2023-03-31T19:50:55;4.20;99.90
10247;DHT22;5168;47.854;7.944;2023-03-31T19:53:22;4.20;99.90
10247;DHT22;5168;47.854;7.944;2023-03-31T19:55:59;4.80;99.90
10247;DHT22;5168;47.854;7.944;2023-03-31T19:58:26;4.30;99.90
10247;DHT22;5168;47.854;7.944;2023-03-31T20:00:55;5.10;99.90
10247;DHT22;5168;47.854;7.944;2023-03-31T20:03:22;5.10;99.90
10247;DHT22;5168;47.854;7.944;2023-03-31T20:05:49;4.80;99.90
10247;DHT22;5168;47.854;7.944;2023-03-31T20:08:16;4.60;99.90
10247;DHT22;5168;47.854;7.944;2023-03-31T20:13:09;4.20;99.90
10247;DHT22;5168;47.854;7.944;2023-03-31T20:18:01;4.50;99.90
10247;DHT22;5168;47.854;7.944;2023-03-31T20:22:52;4.30;99.90
10247;DHT22;5168;47.854;7.944;2023-03-31T20:25:18;4.20;99.90
10247;DHT22;5168;47.854;7.944;2023-03-31T20:27:44;5.00;99.90
10247;DHT22;5168;47.854;7.944;2023-03-31T20:30:10;4.40;99.90
10247;DHT22;5168;47.854;7.944;2023-03-31T20:32:37;4.80;99.90
10247;DHT22;5168;47.854;7.944;2023-03-31T20:37:31;4.40;99.90
10247;DHT22;5168;47.854;7.944;2023-03-31T20:39:57;4.30;99.90
10247;DHT22;5168;47.854;7.944;2023-03-31T20:42:23;4.50;99.90
10247;DHT22;5168;47.854;7.944;2023-03-31T20:44:49;4.30;99.90
10247;DHT22;5168;47.854;7.944;2023-03-31T20:49:41;4.40;99.90
10247;DHT22;5168;47.854;7.944;2023-03-31T20:52:07;4.90;99.90
10247;DHT22;5168;47.854;7.944;2023-03-31T20:54:33;3.90;99.90
10247;DHT22;5168;47.854;7.944;2023-03-31T20:56:59;4.40;99.90
10247;DHT22;5168;47.854;7.944;2023-03-31T20:59:29;4.70;99.90
10247;DHT22;5168;47.854;7.944;2023-03-31T21:01:55;4.80;99.90
10247;DHT22;5168;47.854;7.944;2023-03-31T21:04:21;4.70;99.90
10247;DHT22;5168;47.854;7.944;2023-03-31T21:06:47;4.20;99.90
10247;DHT22;5168;47.854;7.944;2023-03-31T21:09:14;4.40;99.90
10247;DHT22;5168;47.854;7.944;2023-03-31T21:11:39;4.50;99.90
10247;DHT22;5168;47.854;7.944;2023-03-31T21:14:06;4.00;99.90
10247;DHT22;5168;47.854;7.944;2023-03-31T21:16:32;4.20;99.90
10247;DHT22;5168;47.854;7.944;2023-03-31T21:21:24;4.20;99.90
10247;DHT22;5168;47.854;7.944;2023-03-31T21:23:51;4.70;99.90
10247;DHT22;5168;47.854;7.944;2023-03-31T21:26:18;4.20;99.90
10247;DHT22;5168;47.854;7.944;2023-03-31T21:28:44;4.40;99.90
10247;DHT22;5168;47.854;7.944;2023-03-31T21:33:38;4.50;99.90
10247;DHT22;5168;47.854;7.944;2023-03-31T21:36:09;4.40;99.90
10247;DHT22;5168;47.854;7.944;2023-03-31T21:38:36;4.40;99.90
10247;DHT22;5168;47.854;7.944;2023-03-31T21:41:13;4.40;99.90
10247;DHT22;5168;47.854;7.944;2023-03-31T21:43:39;4.20;99.90
10247;DHT22;5168;47.854;7.944;2023-03-31T21:46:06;4.30;99.90
10247;DHT22;5168;47.854;7.944;2023-03-31T21:48:32;4.20;99.90
10247;DHT22;5168;47.854;7.944;2023-03-31T21:50:58;4.20;99.90
10247;DHT22;5168;47.854;7.944;2023-03-31T21:53:28;4.40;99.90
10247;DHT22;5168;47.854;7.944;2023-03-31T21:55:55;4.40;99.90
10247;DHT22;5168;47.854;7.944;2023-03-31T21:58:22;4.40;99.90
10247;DHT22;5168;47.854;7.944;2023-03-31T22:03:16;4.30;99.90
10247;DHT22;5168;47.854;7.944;2023-03-31T22:05:42;4.50;99.90
10247;DHT22;5168;47.854;7.944;2023-03-31T22:08:07;4.20;99.90
10247;DHT22;5168;47.854;7.944;2023-03-31T22:10:33;4.10;99.90
10247;DHT22;5168;47.854;7.944;2023-03-31T22:12:59;4.00;99.90
10247;DHT22;5168;47.854;7.944;2023-03-31T22:15:25;4.20;99.90
10247;DHT22;5168;47.854;7.944;2023-03-31T22:17:50;4.40;99.90
10247;DHT22;5168;47.854;7.944;2023-03-31T22:20:16;4.30;99.90
10247;DHT22;5168;47.854;7.944;2023-03-31T22:25:08;4.00;99.90
10247;DHT22;5168;47.854;7.944;2023-03-31T22:27:34;4.30;99.90
10247;DHT22;5168;47.854;7.944;2023-03-31T22:30:00;4.10;99.90
10247;DHT22;5168;47.854;7.944;2023-03-31T22:32:26;4.10;99.90
10247;DHT22;5168;47.854;7.944;2023-03-31T22:34:51;4.40;99.90
10247;DHT22;5168;47.854;7.944;2023-03-31T22:42:09;4.10;99.90
10247;DHT22;5168;47.854;7.944;2023-03-31T22:44:35;4.20;99.90
10247;DHT22;5168;47.854;7.944;2023-03-31T22:47:05;3.70;99.90
10247;DHT22;5168;47.854;7.944;2023-03-31T22:49:31;3.70;99.90
10247;DHT22;5168;47.854;7.944;2023-03-31T22:51:56;3.80;99.90
10247;DHT22;5168;47.854;7.944;2023-03-31T22:54:22;4.20;99.90
10247;DHT22;5168;47.854;7.944;2023-03-31T23:06:32;4.00;99.90
10247;DHT22;5168;47.854;7.944;2023-03-31T23:08:58;4.10;99.90
10247;DHT22;5168;47.854;7.944;2023-03-31T23:11:24;3.50;99.90
10247;DHT22;5168;47.854;7.944;2023-03-31T23:13:50;3.60;99.90
10247;DHT22;5168;47.854;7.944;2023-03-31T23:16:19;3.50;99.90
10247;DHT22;5168;47.854;7.944;2023-03-31T23:18:45;3.30;99.90
10247;DHT22;5168;47.854;7.944;2023-03-31T23:21:14;3.10;99.90
10247;DHT22;5168;47.854;7.944;2023-03-31T23:23:40;3.70;99.90
10247;DHT22;5168;47.854;7.944;2023-03-31T23:26:06;3.40;99.90
10247;DHT22;5168;47.854;7.944;2023-03-31T23:28:33;3.50;99.90
10247;DHT22;5168;47.854;7.944;2023-03-31T23:30:59;3.60;99.90
10247;DHT22;5168;47.854;7.944;2023-03-31T23:33:26;3.10;99.90